sensor_id;sensor_type;location;lat;lon;timestamp;pressure;altitude;pressure_sealevel;temperature;humidity
6038;BME280;3047;42.600;23.470;2023-05-11T00:00:33;93238.84;;;8.78;100.00
6038;BME280;3047;42.600;23.470;2023-05-11T00:03:00;93235.31;;;8.87;100.00
6038;BME280;3047;42.600;23.470;2023-05-11T00:05:26;93248.75;;;8.87;100.00
6038;BME280;3047;42.600;23.470;2023-05-11T00:07:53;93241.59;;;8.68;100.00
6038;BME280;3047;42.600;23.470;2023-05-11T00:10:22;93227.31;;;8.68;100.00
6038;BME280;3047;42.600;23.470;2023-05-11T00:12:48;93235.59;;;8.73;100.00
6038;BME280;3047;42.600;23.470;2023-05-11T00:15:15;93238.09;;;8.73;100.00
6038;BME280;3047;42.600;23.470;2023-05-11T00:17:42;93239.75;;;8.76;100.00
6038;BME280;3047;42.600;23.470;2023-05-11T00:20:10;93245.53;;;8.81;100.00
6038;BME280;3047;42.600;23.470;2023-05-11T00:22:36;93254.91;;;8.73;100.00
6038;BME280;3047;42.600;23.470;2023-05-11T00:25:04;93230.91;;;8.55;100.00
6038;BME280;3047;42.600;23.470;2023-05-11T00:27:32;93255.13;;;8.60;100.00
6038;BME280;3047;42.600;23.470;2023-05-11T00:29:59;93229.84;;;8.66;100.00
6038;BME280;3047;42.600;23.470;2023-05-11T00:32:25;93251.06;;;8.55;100.00
6038;BME280;3047;42.600;23.470;2023-05-11T00:34:52;93236.56;;;8.68;100.00
6038;BME280;3047;42.600;23.470;2023-05-11T00:37:19;93249.22;;;8.63;100.00
6038;BME280;3047;42.600;23.470;2023-05-11T00:39:45;93256.63;;;8.71;100.00
6038;BME280;3047;42.600;23.470;2023-05-11T00:42:12;93259.22;;;8.66;100.00
6038;BME280;3047;42.600;23.470;2023-05-11T00:44:40;93250.94;;;8.61;100.00
6038;BME280;3047;42.600;23.470;2023-05-11T00:47:07;93256.00;;;8.59;100.00
6038;BME280;3047;42.600;23.470;2023-05-11T00:49:34;93260.91;;;8.65;100.00
6038;BME280;3047;42.600;23.470;2023-05-11T00:52:01;93208.59;;;8.33;100.00
6038;BME280;3047;42.600;23.470;2023-05-11T00:54:28;93260.19;;;8.60;100.00
6038;BME280;3047;42.600;23.470;2023-05-11T00:56:55;93256.84;;;8.58;100.00
6038;BME280;3047;42.600;23.470;2023-05-11T00:59:22;93250.19;;;8.56;100.00
6038;BME280;3047;42.600;23.470;2023-05-11T01:01:50;93264.28;;;8.64;100.00
6038;BME280;3047;42.600;23.470;2023-05-11T01:04:17;93261.72;;;8.68;100.00
6038;BME280;3047;42.600;23.470;2023-05-11T01:06:54;93258.31;;;8.70;100.00
6038;BME280;3047;42.600;23.470;2023-05-11T01:09:32;93262.28;;;8.82;100.00
6038;BME280;3047;42.600;23.470;2023-05-11T01:12:09;93251.47;;;8.77;100.00
6038;BME280;3047;42.600;23.470;2023-05-11T01:14:43;93235.88;;;8.58;100.00
6038;BME280;3047;42.600;23.470;2023-05-11T01:17:17;93240.06;;;8.59;100.00
6038;BME280;3047;42.600;23.470;2023-05-11T01:19:49;93243.34;;;8.62;100.00
6038;BME280;3047;42.600;23.470;2023-05-11T01:22:30;93231.06;;;8.47;100.00
6038;BME280;3047;42.600;23.470;2023-05-11T01:25:12;93259.34;;;8.60;100.00
6038;BME280;3047;42.600;23.470;2023-05-11T01:27:56;93252.81;;;8.50;100.00
6038;BME280;3047;42.600;23.470;2023-05-11T01:30:41;93256.22;;;8.47;100.00
6038;BME280;3047;42.600;23.470;2023-05-11T01:33:11;93257.84;;;8.50;100.00
6038;BME280;3047;42.600;23.470;2023-05-11T01:35:43;93254.53;;;8.46;100.00
6038;BME280;3047;42.600;23.470;2023-05-11T01:38:12;93248.72;;;8.42;100.00
6038;BME280;3047;42.600;23.470;2023-05-11T01:40:41;93253.75;;;8.42;100.00
6038;BME280;3047;42.600;23.470;2023-05-11T01:43:12;93239.47;;;8.45;100.00
6038;BME280;3047;42.600;23.470;2023-05-11T01:45:45;93249.63;;;8.38;100.00
6038;BME280;3047;42.600;23.470;2023-05-11T01:48:17;93242.13;;;8.37;100.00
6038;BME280;3047;42.600;23.470;2023-05-11T01:50:46;93224.53;;;8.35;100.00
6038;BME280;3047;42.600;23.470;2023-05-11T01:53:14;93259.72;;;8.38;100.00
6038;BME280;3047;42.600;23.470;2023-05-11T01:55:44;93247.25;;;8.31;100.00
6038;BME280;3047;42.600;23.470;2023-05-11T01:58:13;93250.56;;;8.33;100.00
6038;BME280;3047;42.600;23.470;2023-05-11T02:00:44;93236.41;;;8.26;100.00
6038;BME280;3047;42.600;23.470;2023-05-11T02:03:12;93240.56;;;8.28;100.00
6038;BME280;3047;42.600;23.470;2023-05-11T02:05:40;93237.38;;;8.20;100.00
6038;BME280;3047;42.600;23.470;2023-05-11T02:08:08;93210.88;;;7.99;100.00
6038;BME280;3047;42.600;23.470;2023-05-11T02:10:37;93239.31;;;8.04;100.00
6038;BME280;3047;42.600;23.470;2023-05-11T02:13:06;93225.03;;;8.06;100.00
6038;BME280;3047;42.600;23.470;2023-05-11T02:15:36;93229.91;;;8.15;100.00
6038;BME280;3047;42.600;23.470;2023-05-11T02:18:05;93244.25;;;8.09;100.00
6038;BME280;3047;42.600;23.470;2023-05-11T02:20:33;93246.97;;;7.98;100.00
6038;BME280;3047;42.600;23.470;2023-05-11T02:23:01;93235.25;;;7.96;100.00
6038;BME280;3047;42.600;23.470;2023-05-11T02:25:29;93240.09;;;8.08;100.00
6038;BME280;3047;42.600;23.470;2023-05-11T02:27:57;93242.56;;;8.11;100.00
6038;BME280;3047;42.600;23.470;2023-05-11T02:30:25;93235.06;;;8.08;100.00
6038;BME280;3047;42.600;23.470;2023-05-11T02:32:53;93245.84;;;8.14;100.00
6038;BME280;3047;42.600;23.470;2023-05-11T02:35:28;93252.41;;;8.23;100.00
6038;BME280;3047;42.600;23.470;2023-05-11T02:37:57;93237.28;;;8.25;100.00
6038;BME280;3047;42.600;23.470;2023-05-11T02:40:28;93232.31;;;8.20;100.00
6038;BME280;3047;42.600;23.470;2023-05-11T02:42:59;93233.16;;;8.21;100.00
6038;BME280;3047;42.600;23.470;2023-05-11T02:45:29;93249.69;;;8.34;100.00
6038;BME280;3047;42.600;23.470;2023-05-11T02:47:57;93249.44;;;8.51;100.00
6038;BME280;3047;42.600;23.470;2023-05-11T02:50:27;93232.88;;;8.37;100.00
6038;BME280;3047;42.600;23.470;2023-05-11T02:52:58;93244.47;;;8.48;100.00
6038;BME280;3047;42.600;23.470;2023-05-11T02:55:28;93246.94;;;8.51;100.00
6038;BME280;3047;42.600;23.470;2023-05-11T02:57:55;93247.69;;;8.56;100.00
6038;BME280;3047;42.600;23.470;2023-05-11T03:00:22;93240.25;;;8.48;100.00
6038;BME280;3047;42.600;23.470;2023-05-11T03:02:49;93211.25;;;8.26;100.00
6038;BME280;3047;42.600;23.470;2023-05-11T03:05:16;93231.94;;;8.45;100.00
6038;BME280;3047;42.600;23.470;2023-05-11T03:07:45;93238.56;;;8.49;100.00
6038;BME280;3047;42.600;23.470;2023-05-11T03:10:12;93243.69;;;8.44;100.00
6038;BME280;3047;42.600;23.470;2023-05-11T03:12:39;93227.81;;;8.40;100.00
6038;BME280;3047;42.600;23.470;2023-05-11T03:15:07;93218.72;;;8.32;100.00
6038;BME280;3047;42.600;23.470;2023-05-11T03:17:36;93214.41;;;8.38;100.00
6038;BME280;3047;42.600;23.470;2023-05-11T03:20:06;93226.16;;;8.39;100.00
6038;BME280;3047;42.600;23.470;2023-05-11T03:22:36;93253.84;;;8.36;100.00
6038;BME280;3047;42.600;23.470;2023-05-11T03:25:06;93240.31;;;8.45;100.00
6038;BME280;3047;42.600;23.470;2023-05-11T03:27:33;93234.72;;;8.28;100.00
6038;BME280;3047;42.600;23.470;2023-05-11T03:30:02;93222.16;;;8.26;100.00
6038;BME280;3047;42.600;23.470;2023-05-11T03:32:29;93242.91;;;8.40;100.00
6038;BME280;3047;42.600;23.470;2023-05-11T03:34:56;93254.72;;;8.34;100.00
6038;BME280;3047;42.600;23.470;2023-05-11T03:37:23;93238.06;;;8.28;100.00
6038;BME280;3047;42.600;23.470;2023-05-11T03:39:51;93247.56;;;8.12;100.00
6038;BME280;3047;42.600;23.470;2023-05-11T03:42:22;93254.06;;;8.24;100.00
6038;BME280;3047;42.600;23.470;2023-05-11T03:44:51;93257.56;;;8.15;100.00
6038;BME280;3047;42.600;23.470;2023-05-11T03:47:20;93266.69;;;8.23;100.00
6038;BME280;3047;42.600;23.470;2023-05-11T03:49:48;93251.09;;;8.02;100.00
6038;BME280;3047;42.600;23.470;2023-05-11T03:52:15;93254.19;;;8.16;100.00
6038;BME280;3047;42.600;23.470;2023-05-11T03:54:42;93267.00;;;8.03;100.00
6038;BME280;3047;42.600;23.470;2023-05-11T03:57:10;93266.97;;;8.04;100.00
6038;BME280;3047;42.600;23.470;2023-05-11T03:59:39;93274.41;;;8.12;100.00
6038;BME280;3047;42.600;23.470;2023-05-11T04:02:06;93263.66;;;8.02;100.00
6038;BME280;3047;42.600;23.470;2023-05-11T04:04:33;93280.22;;;8.14;100.00
6038;BME280;3047;42.600;23.470;2023-05-11T04:07:00;93275.19;;;8.14;100.00
6038;BME280;3047;42.600;23.470;2023-05-11T04:09:26;93285.25;;;8.15;100.00
6038;BME280;3047;42.600;23.470;2023-05-11T04:11:53;93280.16;;;8.18;100.00
6038;BME280;3047;42.600;23.470;2023-05-11T04:14:20;93274.34;;;8.15;100.00
6038;BME280;3047;42.600;23.470;2023-05-11T04:16:48;93276.59;;;8.30;100.00
6038;BME280;3047;42.600;23.470;2023-05-11T04:19:14;93274.84;;;8.37;100.00
6038;BME280;3047;42.600;23.470;2023-05-11T04:21:41;93275.66;;;8.39;100.00
6038;BME280;3047;42.600;23.470;2023-05-11T04:24:08;93280.44;;;8.53;100.00
6038;BME280;3047;42.600;23.470;2023-05-11T04:26:35;93274.69;;;8.46;100.00
6038;BME280;3047;42.600;23.470;2023-05-11T04:29:04;93264.78;;;8.37;100.00
6038;BME280;3047;42.600;23.470;2023-05-11T04:31:31;93277.06;;;8.55;100.00
6038;BME280;3047;42.600;23.470;2023-05-11T04:33:59;93283.78;;;8.55;100.00
6038;BME280;3047;42.600;23.470;2023-05-11T04:36:26;93286.09;;;8.65;100.00
6038;BME280;3047;42.600;23.470;2023-05-11T04:38:53;93287.06;;;8.58;100.00
6038;BME280;3047;42.600;23.470;2023-05-11T04:41:20;93289.56;;;8.58;100.00
6038;BME280;3047;42.600;23.470;2023-05-11T04:43:46;93292.09;;;8.58;100.00
6038;BME280;3047;42.600;23.470;2023-05-11T04:46:13;93289.44;;;8.68;100.00
6038;BME280;3047;42.600;23.470;2023-05-11T04:48:40;93283.56;;;8.65;100.00
6038;BME280;3047;42.600;23.470;2023-05-11T04:51:08;93292.81;;;8.65;100.00
6038;BME280;3047;42.600;23.470;2023-05-11T04:53:35;93297.75;;;8.71;100.00
6038;BME280;3047;42.600;23.470;2023-05-11T04:56:01;93306.19;;;8.69;100.00
6038;BME280;3047;42.600;23.470;2023-05-11T04:58:29;93275.28;;;8.60;100.00
6038;BME280;3047;42.600;23.470;2023-05-11T05:00:55;93307.19;;;8.60;100.00
6038;BME280;3047;42.600;23.470;2023-05-11T05:03:22;93296.97;;;8.68;100.00
6038;BME280;3047;42.600;23.470;2023-05-11T05:05:49;93295.28;;;8.68;100.00
6038;BME280;3047;42.600;23.470;2023-05-11T05:08:17;93282.75;;;8.65;100.00
6038;BME280;3047;42.600;23.470;2023-05-11T05:10:46;93302.81;;;8.70;100.00
6038;BME280;3047;42.600;23.470;2023-05-11T05:13:13;93298.81;;;8.58;100.00
6038;BME280;3047;42.600;23.470;2023-05-11T05:15:41;93295.59;;;8.51;100.00
6038;BME280;3047;42.600;23.470;2023-05-11T05:18:07;93314.03;;;8.52;100.00
6038;BME280;3047;42.600;23.470;2023-05-11T05:20:34;93312.31;;;8.55;100.00
6038;BME280;3047;42.600;23.470;2023-05-11T05:23:01;93271.69;;;8.24;100.00
6038;BME280;3047;42.600;23.470;2023-05-11T05:25:29;93302.31;;;8.51;100.00
6038;BME280;3047;42.600;23.470;2023-05-11T05:27:56;93301.38;;;8.56;100.00
6038;BME280;3047;42.600;23.470;2023-05-11T05:30:23;93303.22;;;8.45;100.00
6038;BME280;3047;42.600;23.470;2023-05-11T05:32:49;93320.81;;;8.47;100.00
6038;BME280;3047;42.600;23.470;2023-05-11T05:35:16;93284.06;;;8.38;100.00
6038;BME280;3047;42.600;23.470;2023-05-11T05:37:43;93311.59;;;8.47;100.00
6038;BME280;3047;42.600;23.470;2023-05-11T05:40:10;93310.69;;;8.51;100.00
6038;BME280;3047;42.600;23.470;2023-05-11T05:42:38;93315.66;;;8.54;100.00
6038;BME280;3047;42.600;23.470;2023-05-11T05:45:06;93313.13;;;8.56;100.00
6038;BME280;3047;42.600;23.470;2023-05-11T05:47:32;93297.50;;;8.37;100.00
6038;BME280;3047;42.600;23.470;2023-05-11T05:49:59;93320.72;;;8.53;100.00
6038;BME280;3047;42.600;23.470;2023-05-11T05:52:26;93315.78;;;8.47;100.00
6038;BME280;3047;42.600;23.470;2023-05-11T05:54:53;93319.19;;;8.44;100.00
6038;BME280;3047;42.600;23.470;2023-05-11T05:57:19;93324.31;;;8.38;100.00
6038;BME280;3047;42.600;23.470;2023-05-11T05:59:47;93325.19;;;8.35;100.00
6038;BME280;3047;42.600;23.470;2023-05-11T06:02:15;93330.31;;;8.31;100.00
6038;BME280;3047;42.600;23.470;2023-05-11T06:04:41;93325.97;;;8.40;100.00
6038;BME280;3047;42.600;23.470;2023-05-11T06:07:08;93327.69;;;8.37;100.00
6038;BME280;3047;42.600;23.470;2023-05-11T06:09:35;93278.59;;;8.10;100.00
6038;BME280;3047;42.600;23.470;2023-05-11T06:12:01;93286.78;;;8.24;100.00
6038;BME280;3047;42.600;23.470;2023-05-11T06:14:29;93336.66;;;8.53;100.00
6038;BME280;3047;42.600;23.470;2023-05-11T06:16:57;93339.94;;;8.58;100.00
6038;BME280;3047;42.600;23.470;2023-05-11T06:19:24;93350.84;;;8.57;100.00
6038;BME280;3047;42.600;23.470;2023-05-11T06:21:50;93335.84;;;8.53;100.00
6038;BME280;3047;42.600;23.470;2023-05-11T06:24:17;93349.41;;;8.42;100.00
6038;BME280;3047;42.600;23.470;2023-05-11T06:26:44;93342.75;;;8.40;100.00
6038;BME280;3047;42.600;23.470;2023-05-11T06:29:11;93339.25;;;8.49;100.00
6038;BME280;3047;42.600;23.470;2023-05-11T06:31:37;93344.34;;;8.47;100.00
6038;BME280;3047;42.600;23.470;2023-05-11T06:34:05;93344.28;;;8.49;100.00
6038;BME280;3047;42.600;23.470;2023-05-11T06:36:33;93335.22;;;8.38;100.00
6038;BME280;3047;42.600;23.470;2023-05-11T06:39:00;93345.16;;;8.46;100.00
6038;BME280;3047;42.600;23.470;2023-05-11T06:41:26;93350.06;;;8.54;100.00
6038;BME280;3047;42.600;23.470;2023-05-11T06:43:53;93353.41;;;8.54;100.00
6038;BME280;3047;42.600;23.470;2023-05-11T06:46:20;93358.41;;;8.59;100.00
6038;BME280;3047;42.600;23.470;2023-05-11T06:48:46;93354.25;;;8.56;100.00
6038;BME280;3047;42.600;23.470;2023-05-11T06:51:16;93357.41;;;8.68;100.00
6038;BME280;3047;42.600;23.470;2023-05-11T06:53:42;93330.63;;;8.62;100.00
6038;BME280;3047;42.600;23.470;2023-05-11T06:56:09;93358.16;;;8.73;100.00
6038;BME280;3047;42.600;23.470;2023-05-11T06:58:36;93358.25;;;8.68;100.00
6038;BME280;3047;42.600;23.470;2023-05-11T07:01:02;93363.06;;;8.79;100.00
6038;BME280;3047;42.600;23.470;2023-05-11T07:03:32;93354.66;;;8.81;100.00
6038;BME280;3047;42.600;23.470;2023-05-11T07:05:58;93347.75;;;8.93;100.00
6038;BME280;3047;42.600;23.470;2023-05-11T07:08:26;93330.25;;;8.85;100.00
6038;BME280;3047;42.600;23.470;2023-05-11T07:10:53;93350.00;;;9.06;100.00
6038;BME280;3047;42.600;23.470;2023-05-11T07:13:20;93350.78;;;9.10;100.00
6038;BME280;3047;42.600;23.470;2023-05-11T07:15:47;93362.16;;;9.29;100.00
6038;BME280;3047;42.600;23.470;2023-05-11T07:18:14;93360.38;;;9.36;100.00
6038;BME280;3047;42.600;23.470;2023-05-11T07:20:41;93350.22;;;9.39;100.00
6038;BME280;3047;42.600;23.470;2023-05-11T07:23:08;93360.03;;;9.53;100.00
6038;BME280;3047;42.600;23.470;2023-05-11T07:25:36;93335.06;;;9.40;100.00
6038;BME280;3047;42.600;23.470;2023-05-11T07:28:02;93367.47;;;9.59;99.96
6038;BME280;3047;42.600;23.470;2023-05-11T07:30:29;93365.50;;;9.73;100.00
6038;BME280;3047;42.600;23.470;2023-05-11T07:32:56;93365.50;;;9.72;100.00
6038;BME280;3047;42.600;23.470;2023-05-11T07:35:22;93359.38;;;9.85;100.00
6038;BME280;3047;42.600;23.470;2023-05-11T07:37:49;93368.22;;;10.03;99.85
6038;BME280;3047;42.600;23.470;2023-05-11T07:40:16;93363.94;;;10.06;99.74
6038;BME280;3047;42.600;23.470;2023-05-11T07:42:44;93373.94;;;10.11;98.62
6038;BME280;3047;42.600;23.470;2023-05-11T07:45:11;93345.84;;;9.87;99.56
6038;BME280;3047;42.600;23.470;2023-05-11T07:47:37;93362.03;;;10.18;100.00
6038;BME280;3047;42.600;23.470;2023-05-11T07:50:05;93373.66;;;10.25;100.00
6038;BME280;3047;42.600;23.470;2023-05-11T07:52:32;93377.19;;;10.16;100.00
6038;BME280;3047;42.600;23.470;2023-05-11T07:54:59;93380.47;;;10.20;100.00
6038;BME280;3047;42.600;23.470;2023-05-11T07:57:26;93367.03;;;10.19;100.00
6038;BME280;3047;42.600;23.470;2023-05-11T07:59:54;93382.69;;;10.35;100.00
6038;BME280;3047;42.600;23.470;2023-05-11T08:02:21;93374.31;;;10.33;99.30
6038;BME280;3047;42.600;23.470;2023-05-11T08:04:47;93374.47;;;10.27;100.00
6038;BME280;3047;42.600;23.470;2023-05-11T08:07:14;93381.22;;;10.26;100.00
6038;BME280;3047;42.600;23.470;2023-05-11T08:09:41;93391.25;;;10.28;98.44
6038;BME280;3047;42.600;23.470;2023-05-11T08:12:08;93386.03;;;10.35;97.77
6038;BME280;3047;42.600;23.470;2023-05-11T08:14:34;93382.69;;;10.35;99.28
6038;BME280;3047;42.600;23.470;2023-05-11T08:17:03;93383.75;;;10.25;100.00
6038;BME280;3047;42.600;23.470;2023-05-11T08:19:30;93396.19;;;10.32;99.24
6038;BME280;3047;42.600;23.470;2023-05-11T08:21:57;93387.84;;;10.29;99.95
6038;BME280;3047;42.600;23.470;2023-05-11T08:24:24;93391.34;;;10.23;100.00
6038;BME280;3047;42.600;23.470;2023-05-11T08:26:50;93387.31;;;10.14;100.00
6038;BME280;3047;42.600;23.470;2023-05-11T08:29:17;93383.16;;;10.13;100.00
6038;BME280;3047;42.600;23.470;2023-05-11T08:31:44;93387.22;;;10.19;100.00
6038;BME280;3047;42.600;23.470;2023-05-11T08:34:12;93388.03;;;10.21;100.00
6038;BME280;3047;42.600;23.470;2023-05-11T08:36:38;93384.75;;;10.16;100.00
6038;BME280;3047;42.600;23.470;2023-05-11T08:39:05;93385.63;;;10.15;100.00
6038;BME280;3047;42.600;23.470;2023-05-11T08:41:32;93393.13;;;10.18;100.00
6038;BME280;3047;42.600;23.470;2023-05-11T08:43:59;93367.50;;;9.98;100.00
6038;BME280;3047;42.600;23.470;2023-05-11T08:46:28;93389.13;;;10.08;100.00
6038;BME280;3047;42.600;23.470;2023-05-11T08:48:55;93346.16;;;9.72;100.00
6038;BME280;3047;42.600;23.470;2023-05-11T08:51:24;93387.59;;;10.02;100.00
6038;BME280;3047;42.600;23.470;2023-05-11T08:53:52;93387.59;;;10.02;100.00
6038;BME280;3047;42.600;23.470;2023-05-11T08:56:24;93388.47;;;10.00;100.00
6038;BME280;3047;42.600;23.470;2023-05-11T08:58:53;93382.66;;;9.96;100.00
6038;BME280;3047;42.600;23.470;2023-05-11T09:01:20;93378.66;;;9.87;100.00
6038;BME280;3047;42.600;23.470;2023-05-11T09:03:49;93382.84;;;9.88;100.00
6038;BME280;3047;42.600;23.470;2023-05-11T09:06:17;93376.25;;;9.81;100.00
6038;BME280;3047;42.600;23.470;2023-05-11T09:08:45;93359.84;;;9.62;100.00
6038;BME280;3047;42.600;23.470;2023-05-11T09:11:12;93369.88;;;9.65;100.00
6038;BME280;3047;42.600;23.470;2023-05-11T09:13:39;93376.38;;;9.75;100.00
6038;BME280;3047;42.600;23.470;2023-05-11T09:16:07;93364.69;;;9.71;100.00
6038;BME280;3047;42.600;23.470;2023-05-11T09:18:34;93368.13;;;9.67;100.00
6038;BME280;3047;42.600;23.470;2023-05-11T09:21:01;93369.06;;;9.63;100.00
6038;BME280;3047;42.600;23.470;2023-05-11T09:23:27;93337.44;;;9.47;100.00
6038;BME280;3047;42.600;23.470;2023-05-11T09:25:55;93358.16;;;9.62;100.00
6038;BME280;3047;42.600;23.470;2023-05-11T09:28:23;93362.22;;;9.68;100.00
6038;BME280;3047;42.600;23.470;2023-05-11T09:30:50;93357.28;;;9.63;100.00
6038;BME280;3047;42.600;23.470;2023-05-11T09:33:20;93364.75;;;9.68;100.00
6038;BME280;3047;42.600;23.470;2023-05-11T09:35:48;93364.69;;;9.73;100.00
6038;BME280;3047;42.600;23.470;2023-05-11T09:38:15;93366.13;;;9.84;100.00
6038;BME280;3047;42.600;23.470;2023-05-11T09:40:49;93370.22;;;9.88;100.00
6038;BME280;3047;42.600;23.470;2023-05-11T09:43:19;93363.28;;;9.98;100.00
6038;BME280;3047;42.600;23.470;2023-05-11T09:45:47;93349.78;;;10.01;100.00
6038;BME280;3047;42.600;23.470;2023-05-11T09:48:24;93356.94;;;10.19;100.00
6038;BME280;3047;42.600;23.470;2023-05-11T09:50:58;93339.94;;;10.27;100.00
6038;BME280;3047;42.600;23.470;2023-05-11T09:53:33;93354.88;;;10.36;100.00
6038;BME280;3047;42.600;23.470;2023-05-11T09:56:00;93267.53;;;9.92;100.00
6038;BME280;3047;42.600;23.470;2023-05-11T09:58:43;93338.88;;;10.36;100.00
6038;BME280;3047;42.600;23.470;2023-05-11T10:01:10;93352.22;;;10.41;100.00
6038;BME280;3047;42.600;23.470;2023-05-11T10:03:44;93349.50;;;10.50;100.00
6038;BME280;3047;42.600;23.470;2023-05-11T10:06:11;93348.34;;;10.63;100.00
6038;BME280;3047;42.600;23.470;2023-05-11T10:08:38;93338.41;;;10.57;100.00
6038;BME280;3047;42.600;23.470;2023-05-11T10:11:05;93344.19;;;10.61;100.00
6038;BME280;3047;42.600;23.470;2023-05-11T10:13:34;93308.59;;;10.36;100.00
6038;BME280;3047;42.600;23.470;2023-05-11T10:16:02;93327.66;;;10.48;100.00
6038;BME280;3047;42.600;23.470;2023-05-11T10:18:30;93343.06;;;10.38;100.00
6038;BME280;3047;42.600;23.470;2023-05-11T10:20:57;93348.28;;;10.31;100.00
6038;BME280;3047;42.600;23.470;2023-05-11T10:23:25;93337.38;;;10.29;100.00
6038;BME280;3047;42.600;23.470;2023-05-11T10:25:53;93342.06;;;10.07;100.00
6038;BME280;3047;42.600;23.470;2023-05-11T10:28:20;93329.25;;;10.14;100.00
6038;BME280;3047;42.600;23.470;2023-05-11T10:30:50;93323.97;;;10.27;100.00
6038;BME280;3047;42.600;23.470;2023-05-11T10:33:18;93311.16;;;10.34;100.00
6038;BME280;3047;42.600;23.470;2023-05-11T10:35:45;93310.81;;;10.48;100.00
6038;BME280;3047;42.600;23.470;2023-05-11T10:38:13;93313.84;;;10.62;100.00
6038;BME280;3047;42.600;23.470;2023-05-11T10:40:42;93305.03;;;10.77;100.00
6038;BME280;3047;42.600;23.470;2023-05-11T10:43:40;93262.75;;;10.84;100.00
6038;BME280;3047;42.600;23.470;2023-05-11T10:46:27;93325.09;;;11.16;99.65
6038;BME280;3047;42.600;23.470;2023-05-11T10:49:12;93323.91;;;10.97;98.89
6038;BME280;3047;42.600;23.470;2023-05-11T10:52:17;93286.06;;;10.61;100.00
6038;BME280;3047;42.600;23.470;2023-05-11T10:54:57;93319.47;;;10.74;99.46
6038;BME280;3047;42.600;23.470;2023-05-11T10:57:35;93306.28;;;10.94;100.00
6038;BME280;3047;42.600;23.470;2023-05-11T11:03:22;93302.69;;;11.33;99.78
6038;BME280;3047;42.600;23.470;2023-05-11T11:05:48;93302.34;;;11.46;99.36
6038;BME280;3047;42.600;23.470;2023-05-11T11:08:15;93306.63;;;11.44;97.81
6038;BME280;3047;42.600;23.470;2023-05-11T11:10:43;93322.44;;;11.50;97.18
6038;BME280;3047;42.600;23.470;2023-05-11T11:13:12;93304.19;;;11.41;96.96
6038;BME280;3047;42.600;23.470;2023-05-11T11:16:11;93296.59;;;11.41;96.62
6038;BME280;3047;42.600;23.470;2023-05-11T11:18:40;93316.66;;;11.47;96.10
6038;BME280;3047;42.600;23.470;2023-05-11T11:21:06;93315.16;;;11.69;97.36
6038;BME280;3047;42.600;23.470;2023-05-11T11:23:48;93312.28;;;11.81;96.42
6038;BME280;3047;42.600;23.470;2023-05-11T11:26:17;93327.22;;;11.91;96.37
6038;BME280;3047;42.600;23.470;2023-05-11T11:29:09;93312.63;;;11.99;95.92
6038;BME280;3047;42.600;23.470;2023-05-11T11:31:36;93319.16;;;12.06;95.82
6038;BME280;3047;42.600;23.470;2023-05-11T11:34:32;93322.44;;;12.09;94.75
6038;BME280;3047;42.600;23.470;2023-05-11T11:37:05;93321.94;;;11.98;94.39
6038;BME280;3047;42.600;23.470;2023-05-11T11:39:52;93299.56;;;11.55;95.22
6038;BME280;3047;42.600;23.470;2023-05-11T11:42:33;93312.56;;;11.72;95.76
6038;BME280;3047;42.600;23.470;2023-05-11T11:45:24;93299.34;;;11.92;99.12
6038;BME280;3047;42.600;23.470;2023-05-11T11:48:07;93301.41;;;12.07;96.85
6038;BME280;3047;42.600;23.470;2023-05-11T11:50:35;93300.69;;;12.30;99.15
6038;BME280;3047;42.600;23.470;2023-05-11T11:53:02;93289.97;;;12.49;97.29
6038;BME280;3047;42.600;23.470;2023-05-11T11:55:46;93309.34;;;12.50;92.78
6038;BME280;3047;42.600;23.470;2023-05-11T12:01:16;93302.06;;;12.41;91.64
6038;BME280;3047;42.600;23.470;2023-05-11T12:03:45;93297.81;;;12.41;93.70
6038;BME280;3047;42.600;23.470;2023-05-11T12:06:14;93303.84;;;12.37;95.13
6038;BME280;3047;42.600;23.470;2023-05-11T12:08:41;93272.72;;;12.33;96.39
6038;BME280;3047;42.600;23.470;2023-05-11T12:11:08;93282.53;;;12.44;95.97
6038;BME280;3047;42.600;23.470;2023-05-11T12:13:35;93281.94;;;12.36;92.07
6038;BME280;3047;42.600;23.470;2023-05-11T12:16:08;93283.91;;;12.28;92.38
6038;BME280;3047;42.600;23.470;2023-05-11T12:18:36;93302.06;;;12.41;93.00
6038;BME280;3047;42.600;23.470;2023-05-11T12:21:03;93276.72;;;12.41;94.37
6038;BME280;3047;42.600;23.470;2023-05-11T12:23:31;93270.63;;;12.46;91.77
6038;BME280;3047;42.600;23.470;2023-05-11T12:26:01;93252.38;;;12.36;94.18
6038;BME280;3047;42.600;23.470;2023-05-11T12:28:28;93281.06;;;12.62;94.80
6038;BME280;3047;42.600;23.470;2023-05-11T12:30:55;93281.75;;;12.67;91.67
6038;BME280;3047;42.600;23.470;2023-05-11T12:33:22;93254.09;;;12.34;89.86
6038;BME280;3047;42.600;23.470;2023-05-11T12:35:51;93268.50;;;12.59;94.12
6038;BME280;3047;42.600;23.470;2023-05-11T12:38:18;93261.31;;;12.72;95.47
6038;BME280;3047;42.600;23.470;2023-05-11T12:40:47;93278.03;;;12.77;93.25
6038;BME280;3047;42.600;23.470;2023-05-11T12:43:16;93279.19;;;12.69;90.66
6038;BME280;3047;42.600;23.470;2023-05-11T12:45:44;93265.97;;;12.59;90.98
6038;BME280;3047;42.600;23.470;2023-05-11T12:48:11;93259.88;;;12.65;91.28
6038;BME280;3047;42.600;23.470;2023-05-11T12:50:39;93246.09;;;12.47;94.44
6038;BME280;3047;42.600;23.470;2023-05-11T12:53:12;93216.53;;;12.47;93.88
6038;BME280;3047;42.600;23.470;2023-05-11T12:55:40;93256.38;;;12.69;91.63
6038;BME280;3047;42.600;23.470;2023-05-11T12:58:10;93242.03;;;12.68;92.38
6038;BME280;3047;42.600;23.470;2023-05-11T13:00:49;93192.19;;;12.43;91.47
6038;BME280;3047;42.600;23.470;2023-05-11T13:03:20;93223.47;;;12.67;93.37
6038;BME280;3047;42.600;23.470;2023-05-11T13:05:47;93221.34;;;12.55;92.33
6038;BME280;3047;42.600;23.470;2023-05-11T13:08:14;93230.91;;;12.72;95.27
6038;BME280;3047;42.600;23.470;2023-05-11T13:10:42;93218.28;;;12.70;98.61
6038;BME280;3047;42.600;23.470;2023-05-11T13:13:10;93232.03;;;12.88;94.42
6038;BME280;3047;42.600;23.470;2023-05-11T13:15:49;93248.75;;;12.94;92.53
6038;BME280;3047;42.600;23.470;2023-05-11T13:18:16;93238.88;;;12.86;92.16
6038;BME280;3047;42.600;23.470;2023-05-11T13:20:43;93222.31;;;12.76;92.03
6038;BME280;3047;42.600;23.470;2023-05-11T13:23:11;93231.19;;;12.87;94.83
6038;BME280;3047;42.600;23.470;2023-05-11T13:25:51;93222.00;;;12.85;94.63